sensor_id;sensor_type;location;lat;lon;timestamp;pressure;altitude;pressure_sealevel;temperature;humidity
49723;BME280;43484;43.608;1.458;2023-05-23T00:00:48;99604.28;;;17.81;100.00
49723;BME280;43484;43.608;1.458;2023-05-23T00:03:19;99596.50;;;17.86;100.00
49723;BME280;43484;43.608;1.458;2023-05-23T00:05:48;99597.34;;;17.89;100.00
49723;BME280;43484;43.608;1.458;2023-05-23T00:08:16;99587.00;;;17.86;100.00
49723;BME280;43484;43.608;1.458;2023-05-23T00:10:43;99586.94;;;17.94;100.00
49723;BME280;43484;43.608;1.458;2023-05-23T00:13:10;99589.53;;;17.97;100.00
49723;BME280;43484;43.608;1.458;2023-05-23T00:15:41;99598.09;;;18.18;100.00
49723;BME280;43484;43.608;1.458;2023-05-23T00:18:08;99583.38;;;18.19;100.00
49723;BME280;43484;43.608;1.458;2023-05-23T00:20:39;99571.41;;;17.94;100.00
49723;BME280;43484;43.608;1.458;2023-05-23T00:23:07;99522.16;;;17.92;100.00
49723;BME280;43484;43.608;1.458;2023-05-23T00:25:35;99491.22;;;17.68;100.00
49723;BME280;43484;43.608;1.458;2023-05-23T00:28:03;99461.84;;;17.60;100.00
49723;BME280;43484;43.608;1.458;2023-05-23T00:30:31;99458.31;;;17.81;100.00
49723;BME280;43484;43.608;1.458;2023-05-23T00:32:59;99472.06;;;17.89;100.00
49723;BME280;43484;43.608;1.458;2023-05-23T00:35:26;99470.47;;;17.68;100.00
49723;BME280;43484;43.608;1.458;2023-05-23T00:37:53;99473.09;;;17.58;100.00
49723;BME280;43484;43.608;1.458;2023-05-23T00:40:22;99472.22;;;17.66;100.00
49723;BME280;43484;43.608;1.458;2023-05-23T00:42:49;99452.44;;;17.38;100.00
49723;BME280;43484;43.608;1.458;2023-05-23T00:45:15;99442.06;;;17.36;100.00
49723;BME280;43484;43.608;1.458;2023-05-23T00:47:43;99422.28;;;17.28;100.00
49723;BME280;43484;43.608;1.458;2023-05-23T00:50:11;99409.28;;;17.43;100.00
49723;BME280;43484;43.608;1.458;2023-05-23T00:52:41;99417.03;;;17.50;100.00
49723;BME280;43484;43.608;1.458;2023-05-23T00:55:08;99427.34;;;17.61;100.00
49723;BME280;43484;43.608;1.458;2023-05-23T00:57:36;99435.16;;;17.41;100.00
49723;BME280;43484;43.608;1.458;2023-05-23T01:00:07;99421.41;;;17.30;100.00
49723;BME280;43484;43.608;1.458;2023-05-23T01:02:42;99405.03;;;17.24;100.00
49723;BME280;43484;43.608;1.458;2023-05-23T01:05:11;99410.22;;;17.22;100.00
49723;BME280;43484;43.608;1.458;2023-05-23T01:07:40;99409.38;;;17.16;100.00
49723;BME280;43484;43.608;1.458;2023-05-23T01:10:08;99399.94;;;17.06;100.00
49723;BME280;43484;43.608;1.458;2023-05-23T01:15:14;99372.38;;;16.96;100.00
49723;BME280;43484;43.608;1.458;2023-05-23T01:18:01;99358.53;;;17.06;100.00
49723;BME280;43484;43.608;1.458;2023-05-23T01:20:37;99352.50;;;16.99;100.00
49723;BME280;43484;43.608;1.458;2023-05-23T01:26:30;99348.16;;;17.07;100.00
49723;BME280;43484;43.608;1.458;2023-05-23T01:29:03;99361.13;;;17.00;100.00
49723;BME280;43484;43.608;1.458;2023-05-23T01:31:39;99360.25;;;17.05;100.00
49723;BME280;43484;43.608;1.458;2023-05-23T01:34:09;99360.25;;;17.02;100.00
49723;BME280;43484;43.608;1.458;2023-05-23T01:36:40;99351.69;;;16.87;100.00
49723;BME280;43484;43.608;1.458;2023-05-23T01:39:07;99337.91;;;16.83;100.00
49723;BME280;43484;43.608;1.458;2023-05-23T01:41:35;99337.00;;;16.93;100.00
49723;BME280;43484;43.608;1.458;2023-05-23T01:44:02;99343.03;;;16.95;100.00
49723;BME280;43484;43.608;1.458;2023-05-23T01:46:30;99337.00;;;16.93;100.00
49723;BME280;43484;43.608;1.458;2023-05-23T01:49:00;99334.34;;;17.05;100.00
49723;BME280;43484;43.608;1.458;2023-05-23T01:51:28;99333.50;;;17.05;100.00
49723;BME280;43484;43.608;1.458;2023-05-23T01:53:56;99354.16;;;17.17;100.00
49723;BME280;43484;43.608;1.458;2023-05-23T01:56:23;99354.16;;;17.14;100.00
49723;BME280;43484;43.608;1.458;2023-05-23T01:58:50;99354.22;;;17.02;100.00
49723;BME280;43484;43.608;1.458;2023-05-23T02:01:17;99344.75;;;16.92;100.00
49723;BME280;43484;43.608;1.458;2023-05-23T02:03:44;99336.22;;;16.79;100.00
49723;BME280;43484;43.608;1.458;2023-05-23T02:06:11;99327.56;;;16.80;100.00
49723;BME280;43484;43.608;1.458;2023-05-23T02:08:37;99324.13;;;16.75;100.00
49723;BME280;43484;43.608;1.458;2023-05-23T02:11:04;99318.09;;;16.79;100.00
49723;BME280;43484;43.608;1.458;2023-05-23T02:13:31;99320.66;;;16.82;100.00
49723;BME280;43484;43.608;1.458;2023-05-23T02:15:57;99323.22;;;16.85;100.00
49723;BME280;43484;43.608;1.458;2023-05-23T02:18:24;99326.69;;;16.84;100.00
49723;BME280;43484;43.608;1.458;2023-05-23T02:20:55;99322.44;;;16.73;100.00
49723;BME280;43484;43.608;1.458;2023-05-23T02:23:22;99318.09;;;16.75;100.00
49723;BME280;43484;43.608;1.458;2023-05-23T02:25:48;99303.47;;;16.68;100.00
49723;BME280;43484;43.608;1.458;2023-05-23T02:28:15;99317.25;;;16.76;100.00
49723;BME280;43484;43.608;1.458;2023-05-23T02:30:42;99320.69;;;16.79;100.00
49723;BME280;43484;43.608;1.458;2023-05-23T02:33:08;99322.38;;;16.85;100.00
49723;BME280;43484;43.608;1.458;2023-05-23T02:35:36;99325.84;;;16.81;100.00
49723;BME280;43484;43.608;1.458;2023-05-23T02:38:02;99331.91;;;16.75;100.00
49723;BME280;43484;43.608;1.458;2023-05-23T02:40:29;99332.78;;;16.73;100.00
49723;BME280;43484;43.608;1.458;2023-05-23T02:42:56;99331.06;;;16.69;100.00
49723;BME280;43484;43.608;1.458;2023-05-23T02:45:23;99325.00;;;16.68;100.00
49723;BME280;43484;43.608;1.458;2023-05-23T02:47:50;99325.91;;;16.66;100.00
49723;BME280;43484;43.608;1.458;2023-05-23T02:50:16;99313.88;;;16.53;100.00
49723;BME280;43484;43.608;1.458;2023-05-23T02:52:43;99313.84;;;16.51;100.00
49723;BME280;43484;43.608;1.458;2023-05-23T02:55:10;99316.44;;;16.48;100.00
49723;BME280;43484;43.608;1.458;2023-05-23T02:57:36;99311.25;;;16.51;100.00
49723;BME280;43484;43.608;1.458;2023-05-23T03:00:03;99312.97;;;16.58;100.00
49723;BME280;43484;43.608;1.458;2023-05-23T03:02:30;99321.56;;;16.66;100.00
49723;BME280;43484;43.608;1.458;2023-05-23T03:04:57;99323.31;;;16.67;100.00
49723;BME280;43484;43.608;1.458;2023-05-23T03:07:24;99325.91;;;16.66;100.00
49723;BME280;43484;43.608;1.458;2023-05-23T03:09:55;99319.00;;;16.63;100.00
49723;BME280;43484;43.608;1.458;2023-05-23T03:12:21;99327.63;;;16.64;100.00
49723;BME280;43484;43.608;1.458;2023-05-23T03:14:48;99330.22;;;16.55;100.00
49723;BME280;43484;43.608;1.458;2023-05-23T03:17:15;99319.91;;;16.50;100.00
49723;BME280;43484;43.608;1.458;2023-05-23T03:19:41;99320.75;;;16.57;100.00
49723;BME280;43484;43.608;1.458;2023-05-23T03:22:08;99320.75;;;16.42;100.00
49723;BME280;43484;43.608;1.458;2023-05-23T03:24:35;99310.41;;;16.46;100.00
49723;BME280;43484;43.608;1.458;2023-05-23T03:27:02;99306.13;;;16.41;100.00
49723;BME280;43484;43.608;1.458;2023-05-23T03:29:28;99305.22;;;16.45;100.00
49723;BME280;43484;43.608;1.458;2023-05-23T03:31:56;99314.72;;;16.50;100.00
49723;BME280;43484;43.608;1.458;2023-05-23T03:34:22;99323.34;;;16.52;100.00
49723;BME280;43484;43.608;1.458;2023-05-23T03:36:51;99325.97;;;16.48;100.00
49723;BME280;43484;43.608;1.458;2023-05-23T03:39:18;99332.84;;;16.46;100.00
49723;BME280;43484;43.608;1.458;2023-05-23T03:41:45;99330.25;;;16.44;100.00
49723;BME280;43484;43.608;1.458;2023-05-23T03:44:12;99333.72;;;16.48;100.00
49723;BME280;43484;43.608;1.458;2023-05-23T03:46:40;99344.03;;;16.40;100.00
49723;BME280;43484;43.608;1.458;2023-05-23T03:49:06;99357.81;;;16.47;100.00
49723;BME280;43484;43.608;1.458;2023-05-23T03:51:33;99352.63;;;16.34;100.00
49723;BME280;43484;43.608;1.458;2023-05-23T03:54:00;99355.25;;;16.30;100.00
49723;BME280;43484;43.608;1.458;2023-05-23T03:56:27;99356.06;;;16.40;100.00
49723;BME280;43484;43.608;1.458;2023-05-23T03:58:54;99349.22;;;16.25;100.00
49723;BME280;43484;43.608;1.458;2023-05-23T04:01:20;99349.22;;;16.22;100.00
49723;BME280;43484;43.608;1.458;2023-05-23T04:03:47;99352.69;;;16.10;100.00
49723;BME280;43484;43.608;1.458;2023-05-23T04:06:14;99340.59;;;16.11;100.00
49723;BME280;43484;43.608;1.458;2023-05-23T04:08:42;99344.06;;;16.07;100.00
49723;BME280;43484;43.608;1.458;2023-05-23T04:11:09;99344.03;;;16.13;100.00
49723;BME280;43484;43.608;1.458;2023-05-23T04:13:36;99347.50;;;16.06;100.00
49723;BME280;43484;43.608;1.458;2023-05-23T04:16:04;99349.25;;;16.05;100.00
49723;BME280;43484;43.608;1.458;2023-05-23T04:18:31;99348.38;;;15.99;100.00
49723;BME280;43484;43.608;1.458;2023-05-23T04:21:04;99350.09;;;15.97;100.00
49723;BME280;43484;43.608;1.458;2023-05-23T04:23:31;99347.53;;;16.07;100.00
49723;BME280;43484;43.608;1.458;2023-05-23T04:25:58;99345.78;;;16.06;100.00
49723;BME280;43484;43.608;1.458;2023-05-23T04:28:26;99343.22;;;15.97;100.00
49723;BME280;43484;43.608;1.458;2023-05-23T04:30:53;99345.78;;;15.93;100.00
49723;BME280;43484;43.608;1.458;2023-05-23T04:33:19;99336.31;;;15.92;100.00
49723;BME280;43484;43.608;1.458;2023-05-23T04:35:47;99337.19;;;15.95;100.00
49723;BME280;43484;43.608;1.458;2023-05-23T04:38:14;99341.47;;;16.01;100.00
49723;BME280;43484;43.608;1.458;2023-05-23T04:40:41;99349.22;;;15.99;100.00
49723;BME280;43484;43.608;1.458;2023-05-23T04:43:08;99345.78;;;15.96;100.00
49723;BME280;43484;43.608;1.458;2023-05-23T04:45:35;99344.91;;;16.01;100.00
49723;BME280;43484;43.608;1.458;2023-05-23T04:48:02;99334.59;;;16.03;100.00
49723;BME280;43484;43.608;1.458;2023-05-23T04:50:29;99331.13;;;15.96;100.00
49723;BME280;43484;43.608;1.458;2023-05-23T04:52:58;99326.81;;;15.91;100.00
49723;BME280;43484;43.608;1.458;2023-05-23T04:55:25;99321.69;;;15.97;100.00
49723;BME280;43484;43.608;1.458;2023-05-23T04:57:52;99332.03;;;15.94;100.00
49723;BME280;43484;43.608;1.458;2023-05-23T05:00:18;99336.31;;;16.04;100.00
49723;BME280;43484;43.608;1.458;2023-05-23T05:02:45;99350.06;;;16.19;100.00
49723;BME280;43484;43.608;1.458;2023-05-23T05:05:12;99352.69;;;16.09;100.00
49723;BME280;43484;43.608;1.458;2023-05-23T05:07:38;99358.69;;;16.23;100.00
49723;BME280;43484;43.608;1.458;2023-05-23T05:10:06;99367.31;;;16.33;100.00
49723;BME280;43484;43.608;1.458;2023-05-23T05:12:33;99366.44;;;15.88;100.00
49723;BME280;43484;43.608;1.458;2023-05-23T05:15:01;99351.81;;;15.93;100.00
49723;BME280;43484;43.608;1.458;2023-05-23T05:17:28;99345.75;;;15.81;100.00
49723;BME280;43484;43.608;1.458;2023-05-23T05:19:55;99356.13;;;15.84;100.00
49723;BME280;43484;43.608;1.458;2023-05-23T05:22:22;99357.78;;;15.49;100.00
49723;BME280;43484;43.608;1.458;2023-05-23T05:24:49;99351.72;;;15.41;100.00
49723;BME280;43484;43.608;1.458;2023-05-23T05:27:15;99356.94;;;15.44;100.00
49723;BME280;43484;43.608;1.458;2023-05-23T05:29:42;99356.06;;;15.48;100.00
49723;BME280;43484;43.608;1.458;2023-05-23T05:32:09;99358.63;;;15.42;100.00
49723;BME280;43484;43.608;1.458;2023-05-23T05:34:35;99362.13;;;15.57;100.00
49723;BME280;43484;43.608;1.458;2023-05-23T05:37:03;99358.66;;;15.63;100.00
49723;BME280;43484;43.608;1.458;2023-05-23T05:39:30;99356.94;;;15.63;100.00
49723;BME280;43484;43.608;1.458;2023-05-23T05:41:56;99357.78;;;15.53;100.00
49723;BME280;43484;43.608;1.458;2023-05-23T05:44:24;99357.78;;;15.47;100.00
49723;BME280;43484;43.608;1.458;2023-05-23T05:46:52;99357.69;;;15.31;100.00
49723;BME280;43484;43.608;1.458;2023-05-23T05:49:19;99361.22;;;15.43;100.00
49723;BME280;43484;43.608;1.458;2023-05-23T05:51:45;99370.59;;;15.31;100.00
49723;BME280;43484;43.608;1.458;2023-05-23T05:54:12;99362.84;;;15.25;100.00
49723;BME280;43484;43.608;1.458;2023-05-23T05:56:38;99366.25;;;15.22;100.00
49723;BME280;43484;43.608;1.458;2023-05-23T05:59:05;99376.63;;;15.28;100.00
49723;BME280;43484;43.608;1.458;2023-05-23T06:01:32;99375.88;;;15.47;100.00
49723;BME280;43484;43.608;1.458;2023-05-23T06:04:00;99370.59;;;15.32;100.00
49723;BME280;43484;43.608;1.458;2023-05-23T06:06:27;99370.59;;;15.26;100.00
49723;BME280;43484;43.608;1.458;2023-05-23T06:08:53;99368.00;;;15.28;100.00
49723;BME280;43484;43.608;1.458;2023-05-23T06:11:20;99364.59;;;15.35;100.00
49723;BME280;43484;43.608;1.458;2023-05-23T06:13:46;99356.06;;;15.48;100.00
49723;BME280;43484;43.608;1.458;2023-05-23T06:16:13;99358.59;;;15.39;100.00
49723;BME280;43484;43.608;1.458;2023-05-23T06:18:40;99351.75;;;15.47;100.00
49723;BME280;43484;43.608;1.458;2023-05-23T06:21:08;99356.94;;;15.42;100.00
49723;BME280;43484;43.608;1.458;2023-05-23T06:23:34;99354.28;;;15.32;100.00
49723;BME280;43484;43.608;1.458;2023-05-23T06:26:01;99347.47;;;15.52;100.00
49723;BME280;43484;43.608;1.458;2023-05-23T06:28:28;99340.59;;;15.61;100.00
49723;BME280;43484;43.608;1.458;2023-05-23T06:30:54;99333.72;;;15.65;100.00
49723;BME280;43484;43.608;1.458;2023-05-23T06:33:21;99329.41;;;15.56;100.00
49723;BME280;43484;43.608;1.458;2023-05-23T06:35:48;99331.13;;;15.81;100.00
49723;BME280;43484;43.608;1.458;2023-05-23T06:38:14;99329.44;;;15.62;100.00
49723;BME280;43484;43.608;1.458;2023-05-23T06:40:43;99336.22;;;15.33;100.00
49723;BME280;43484;43.608;1.458;2023-05-23T06:43:09;99337.13;;;15.41;100.00
49723;BME280;43484;43.608;1.458;2023-05-23T06:45:37;99334.56;;;15.49;100.00
49723;BME280;43484;43.608;1.458;2023-05-23T06:48:04;99333.59;;;15.27;100.00
49723;BME280;43484;43.608;1.458;2023-05-23T06:50:31;99334.53;;;15.46;100.00
49723;BME280;43484;43.608;1.458;2023-05-23T06:52:57;99340.59;;;15.64;100.00
49723;BME280;43484;43.608;1.458;2023-05-23T06:55:24;99326.00;;;15.72;100.00
49723;BME280;43484;43.608;1.458;2023-05-23T06:57:51;99334.59;;;15.68;100.00
49723;BME280;43484;43.608;1.458;2023-05-23T07:00:18;99337.16;;;15.68;100.00
49723;BME280;43484;43.608;1.458;2023-05-23T07:02:44;99339.75;;;15.73;100.00
49723;BME280;43484;43.608;1.458;2023-05-23T07:05:14;99338.91;;;15.90;100.00
49723;BME280;43484;43.608;1.458;2023-05-23T07:07:42;99332.00;;;15.85;100.00
49723;BME280;43484;43.608;1.458;2023-05-23T07:10:09;99338.03;;;15.84;100.00
49723;BME280;43484;43.608;1.458;2023-05-23T07:12:36;99326.84;;;15.86;100.00
49723;BME280;43484;43.608;1.458;2023-05-23T07:15:05;99328.56;;;15.84;100.00
49723;BME280;43484;43.608;1.458;2023-05-23T07:17:33;99330.28;;;15.76;100.00
49723;BME280;43484;43.608;1.458;2023-05-23T07:20:01;99324.25;;;16.00;100.00
49723;BME280;43484;43.608;1.458;2023-05-23T07:22:29;99329.44;;;16.09;100.00
49723;BME280;43484;43.608;1.458;2023-05-23T07:24:56;99327.66;;;16.24;100.00
49723;BME280;43484;43.608;1.458;2023-05-23T07:27:23;99331.13;;;16.23;100.00
49723;BME280;43484;43.608;1.458;2023-05-23T07:29:50;99331.09;;;16.42;100.00
49723;BME280;43484;43.608;1.458;2023-05-23T07:32:17;99338.88;;;16.52;100.00
49723;BME280;43484;43.608;1.458;2023-05-23T07:34:44;99354.38;;;16.55;100.00
49723;BME280;43484;43.608;1.458;2023-05-23T07:37:11;99354.41;;;16.22;100.00
49723;BME280;43484;43.608;1.458;2023-05-23T07:39:37;99347.47;;;16.34;100.00
49723;BME280;43484;43.608;1.458;2023-05-23T07:42:04;99358.63;;;16.70;100.00
49723;BME280;43484;43.608;1.458;2023-05-23T07:44:31;99371.56;;;16.79;100.00
49723;BME280;43484;43.608;1.458;2023-05-23T07:46:57;99392.16;;;17.06;100.00
49723;BME280;43484;43.608;1.458;2023-05-23T07:49:24;99410.19;;;17.33;100.00
49723;BME280;43484;43.608;1.458;2023-05-23T07:51:51;99448.97;;;17.46;100.00
49723;BME280;43484;43.608;1.458;2023-05-23T07:54:17;99489.50;;;17.57;100.00
49723;BME280;43484;43.608;1.458;2023-05-23T07:56:44;99512.84;;;17.49;100.00
49723;BME280;43484;43.608;1.458;2023-05-23T07:59:11;99510.25;;;17.37;100.00
49723;BME280;43484;43.608;1.458;2023-05-23T08:01:38;99523.19;;;17.53;100.00
49723;BME280;43484;43.608;1.458;2023-05-23T08:04:05;99532.63;;;17.67;100.00
49723;BME280;43484;43.608;1.458;2023-05-23T08:06:32;99552.53;;;17.56;100.00
49723;BME280;43484;43.608;1.458;2023-05-23T08:09:00;99549.06;;;17.63;100.00
49723;BME280;43484;43.608;1.458;2023-05-23T08:11:27;99552.53;;;17.66;100.00
49723;BME280;43484;43.608;1.458;2023-05-23T08:13:55;99554.16;;;17.88;100.00
49723;BME280;43484;43.608;1.458;2023-05-23T08:16:24;99555.97;;;17.64;100.00
49723;BME280;43484;43.608;1.458;2023-05-23T08:18:53;99571.38;;;17.97;100.00
49723;BME280;43484;43.608;1.458;2023-05-23T08:21:20;99580.91;;;17.98;100.00
49723;BME280;43484;43.608;1.458;2023-05-23T08:23:46;99592.97;;;18.00;100.00
49723;BME280;43484;43.608;1.458;2023-05-23T08:26:13;99605.84;;;18.20;100.00
49723;BME280;43484;43.608;1.458;2023-05-23T08:28:40;99629.91;;;18.50;100.00
49723;BME280;43484;43.608;1.458;2023-05-23T08:31:07;99657.63;;;18.36;100.00
49723;BME280;43484;43.608;1.458;2023-05-23T08:33:34;99658.41;;;18.61;100.00
49723;BME280;43484;43.608;1.458;2023-05-23T08:36:00;99682.66;;;18.54;100.00
49723;BME280;43484;43.608;1.458;2023-05-23T08:38:27;99685.31;;;18.40;100.00
49723;BME280;43484;43.608;1.458;2023-05-23T08:40:55;99683.44;;;18.69;100.00
49723;BME280;43484;43.608;1.458;2023-05-23T08:43:22;99704.16;;;18.77;100.00
49723;BME280;43484;43.608;1.458;2023-05-23T08:45:50;99712.03;;;18.57;100.00
49723;BME280;43484;43.608;1.458;2023-05-23T08:48:19;99694.59;;;18.87;100.00
49723;BME280;43484;43.608;1.458;2023-05-23T08:50:47;99709.28;;;18.88;100.00
49723;BME280;43484;43.608;1.458;2023-05-23T08:53:15;99710.31;;;18.59;100.00
49723;BME280;43484;43.608;1.458;2023-05-23T08:55:49;99698.88;;;18.95;100.00
49723;BME280;43484;43.608;1.458;2023-05-23T08:58:21;99706.84;;;18.59;100.00
49723;BME280;43484;43.608;1.458;2023-05-23T09:00:51;99703.13;;;19.01;100.00
49723;BME280;43484;43.608;1.458;2023-05-23T09:03:19;99731.78;;;18.90;100.00
49723;BME280;43484;43.608;1.458;2023-05-23T09:05:48;99720.44;;;19.02;100.00
49723;BME280;43484;43.608;1.458;2023-05-23T09:08:15;99730.69;;;19.27;100.00
49723;BME280;43484;43.608;1.458;2023-05-23T09:10:42;99743.84;;;18.97;100.00
49723;BME280;43484;43.608;1.458;2023-05-23T09:13:09;99728.28;;;18.93;100.00
49723;BME280;43484;43.608;1.458;2023-05-23T09:15:35;99726.63;;;18.83;100.00
49723;BME280;43484;43.608;1.458;2023-05-23T09:18:02;99731.59;;;19.17;100.00
49723;BME280;43484;43.608;1.458;2023-05-23T09:20:29;99757.59;;;19.13;100.00
49723;BME280;43484;43.608;1.458;2023-05-23T09:22:56;99756.56;;;19.44;100.00
49723;BME280;43484;43.608;1.458;2023-05-23T09:25:22;99765.38;;;19.11;100.00
49723;BME280;43484;43.608;1.458;2023-05-23T09:27:51;99757.50;;;19.29;100.00
49723;BME280;43484;43.608;1.458;2023-05-23T09:30:18;99753.31;;;19.09;100.00
49723;BME280;43484;43.608;1.458;2023-05-23T09:32:57;99747.94;;;19.37;100.00
49723;BME280;43484;43.608;1.458;2023-05-23T09:35:27;99769.28;;;19.77;100.00
49723;BME280;43484;43.608;1.458;2023-05-23T09:37:53;99787.34;;;19.92;100.00
49723;BME280;43484;43.608;1.458;2023-05-23T09:40:31;99797.53;;;20.13;100.00
49723;BME280;43484;43.608;1.458;2023-05-23T09:43:03;99796.66;;;20.19;100.00
49723;BME280;43484;43.608;1.458;2023-05-23T09:45:31;99797.31;;;20.39;100.00
49723;BME280;43484;43.608;1.458;2023-05-23T09:47:57;99801.16;;;19.97;100.00
49723;BME280;43484;43.608;1.458;2023-05-23T09:50:30;99793.75;;;19.49;100.00
49723;BME280;43484;43.608;1.458;2023-05-23T09:52:58;99792.78;;;19.63;100.00
49723;BME280;43484;43.608;1.458;2023-05-23T09:55:26;99796.13;;;19.79;100.00
49723;BME280;43484;43.608;1.458;2023-05-23T09:57:53;99797.50;;;20.22;100.00
49723;BME280;43484;43.608;1.458;2023-05-23T10:00:23;99797.22;;;20.46;100.00
49723;BME280;43484;43.608;1.458;2023-05-23T10:03:11;99801.34;;;20.64;100.00
49723;BME280;43484;43.608;1.458;2023-05-23T10:05:49;99811.41;;;20.94;100.00
49723;BME280;43484;43.608;1.458;2023-05-23T10:08:33;99815.75;;;20.93;100.00
49723;BME280;43484;43.608;1.458;2023-05-23T10:13:47;99808.44;;;20.53;100.00
49723;BME280;43484;43.608;1.458;2023-05-23T10:19:02;99816.81;;;20.79;100.00
49723;BME280;43484;43.608;1.458;2023-05-23T10:21:32;99809.22;;;20.59;100.00
49723;BME280;43484;43.608;1.458;2023-05-23T10:24:04;99809.91;;;20.76;100.00
49723;BME280;43484;43.608;1.458;2023-05-23T10:26:32;99808.44;;;20.53;100.00
49723;BME280;43484;43.608;1.458;2023-05-23T10:28:59;99808.22;;;20.72;100.00
49723;BME280;43484;43.608;1.458;2023-05-23T10:31:26;99810.66;;;20.84;100.00
49723;BME280;43484;43.608;1.458;2023-05-23T10:34:12;99813.38;;;20.75;100.00
49723;BME280;43484;43.608;1.458;2023-05-23T10:39:32;99801.28;;;20.71;100.00
49723;BME280;43484;43.608;1.458;2023-05-23T10:42:06;99809.13;;;20.67;100.00
49723;BME280;43484;43.608;1.458;2023-05-23T10:44:35;99810.53;;;20.93;100.00
49723;BME280;43484;43.608;1.458;2023-05-23T10:47:02;99816.28;;;21.21;100.00
49723;BME280;43484;43.608;1.458;2023-05-23T10:49:40;99817.47;;;21.60;100.00
49723;BME280;43484;43.608;1.458;2023-05-23T10:52:09;99804.78;;;21.93;100.00
49723;BME280;43484;43.608;1.458;2023-05-23T10:54:48;99803.59;;;22.11;100.00
49723;BME280;43484;43.608;1.458;2023-05-23T10:57:18;99803.59;;;22.11;100.00
49723;BME280;43484;43.608;1.458;2023-05-23T10:59:45;99803.50;;;22.15;100.00
49723;BME280;43484;43.608;1.458;2023-05-23T11:02:14;99801.38;;;22.35;100.00
49723;BME280;43484;43.608;1.458;2023-05-23T11:04:42;99801.09;;;22.51;100.00
49723;BME280;43484;43.608;1.458;2023-05-23T11:07:28;99792.63;;;22.39;100.00
49723;BME280;43484;43.608;1.458;2023-05-23T11:10:22;99781.94;;;22.53;100.00
49723;BME280;43484;43.608;1.458;2023-05-23T11:12:48;99786.69;;;21.83;100.00
49723;BME280;43484;43.608;1.458;2023-05-23T11:17:51;99779.66;;;21.88;100.00
49723;BME280;43484;43.608;1.458;2023-05-23T11:20:20;99775.00;;;22.05;100.00
49723;BME280;43484;43.608;1.458;2023-05-23T11:22:53;99777.69;;;21.99;100.00
49723;BME280;43484;43.608;1.458;2023-05-23T11:25:20;99785.50;;;22.00;100.00
49723;BME280;43484;43.608;1.458;2023-05-23T11:28:04;99776.38;;;21.74;100.00
49723;BME280;43484;43.608;1.458;2023-05-23T11:30:31;99780.94;;;21.61;100.00
49723;BME280;43484;43.608;1.458;2023-05-23T11:32:59;99772.59;;;21.93;100.00
49723;BME280;43484;43.608;1.458;2023-05-23T11:35:26;99771.69;;;21.97;100.00
49723;BME280;43484;43.608;1.458;2023-05-23T11:37:55;99768.50;;;22.25;100.00
49723;BME280;43484;43.608;1.458;2023-05-23T11:40:44;99762.22;;;22.37;100.00
49723;BME280;43484;43.608;1.458;2023-05-23T11:43:15;99762.91;;;22.47;100.00
49723;BME280;43484;43.608;1.458;2023-05-23T11:45:43;99760.81;;;22.65;100.00
49723;BME280;43484;43.608;1.458;2023-05-23T11:48:14;99763.25;;;22.73;100.00
49723;BME280;43484;43.608;1.458;2023-05-23T11:50:52;99756.72;;;22.51;100.00
49723;BME280;43484;43.608;1.458;2023-05-23T11:53:20;99747.50;;;22.33;100.00
49723;BME280;43484;43.608;1.458;2023-05-23T11:55:54;99741.06;;;22.06;100.00
49723;BME280;43484;43.608;1.458;2023-05-23T11:58:28;99745.03;;;22.27;100.00
49723;BME280;43484;43.608;1.458;2023-05-23T12:01:06;99763.03;;;22.39;100.00
49723;BME280;43484;43.608;1.458;2023-05-23T12:03:34;99746.78;;;22.25;100.00
49723;BME280;43484;43.608;1.458;2023-05-23T12:06:01;99747.59;;;22.28;100.00
49723;BME280;43484;43.608;1.458;2023-05-23T12:08:28;99743.97;;;22.37;100.00
49723;BME280;43484;43.608;1.458;2023-05-23T12:10:59;99740.59;;;22.29;100.00
49723;BME280;43484;43.608;1.458;2023-05-23T12:13:30;99729.28;;;22.30;100.00
49723;BME280;43484;43.608;1.458;2023-05-23T12:15:59;99730.44;;;22.17;100.00
49723;BME280;43484;43.608;1.458;2023-05-23T12:18:30;99733.09;;;22.12;100.00
49723;BME280;43484;43.608;1.458;2023-05-23T12:21:02;99732.63;;;21.91;100.00
49723;BME280;43484;43.608;1.458;2023-05-23T12:23:31;99721.03;;;22.08;100.00
49723;BME280;43484;43.608;1.458;2023-05-23T12:26:04;99722.41;;;22.26;100.00
49723;BME280;43484;43.608;1.458;2023-05-23T12:28:39;99714.72;;;22.20;100.00
49723;BME280;43484;43.608;1.458;2023-05-23T12:31:13;99712.59;;;22.38;100.00
49723;BME280;43484;43.608;1.458;2023-05-23T12:33:43;99706.81;;;22.67;100.00
49723;BME280;43484;43.608;1.458;2023-05-23T12:36:11;99716.78;;;22.46;100.00
49723;BME280;43484;43.608;1.458;2023-05-23T12:38:37;99706.81;;;22.23;100.00
49723;BME280;43484;43.608;1.458;2023-05-23T12:41:07;99709.13;;;22.38;100.00
49723;BME280;43484;43.608;1.458;2023-05-23T12:43:48;99699.44;;;22.43;100.00
49723;BME280;43484;43.608;1.458;2023-05-23T12:46:14;99697.50;;;22.54;100.00
49723;BME280;43484;43.608;1.458;2023-05-23T12:48:41;99688.72;;;22.58;100.00
49723;BME280;43484;43.608;1.458;2023-05-23T12:51:08;99679.41;;;22.85;100.00
49723;BME280;43484;43.608;1.458;2023-05-23T12:53:34;99691.56;;;22.87;100.00
49723;BME280;43484;43.608;1.458;2023-05-23T12:56:02;99678.31;;;22.95;100.00
49723;BME280;43484;43.608;1.458;2023-05-23T12:58:29;99678.47;;;22.89;100.00
49723;BME280;43484;43.608;1.458;2023-05-23T13:00:57;99668.81;;;22.92;100.00
49723;BME280;43484;43.608;1.458;2023-05-23T13:03:24;99662.44;;;23.04;100.00
49723;BME280;43484;43.608;1.458;2023-05-23T13:05:51;99656.75;;;23.22;100.00
49723;BME280;43484;43.608;1.458;2023-05-23T13:08:19;99657.53;;;23.25;100.00
49723;BME280;43484;43.608;1.458;2023-05-23T13:10:46;99645.38;;;23.23;100.00
49723;BME280;43484;43.608;1.458;2023-05-23T13:13:13;99635.06;;;23.18;100.00